sensor_id;sensor_type;location;lat;lon;timestamp;temperature;humidity
42965;DHT22;28604;51.204;22.552;2023-08-06T00:00:32;21.80;91.20
42965;DHT22;28604;51.204;22.552;2023-08-06T00:03:18;21.70;91.20
42965;DHT22;28604;51.204;22.552;2023-08-06T00:05:44;21.70;91.10
42965;DHT22;28604;51.204;22.552;2023-08-06T00:08:10;21.70;91.10
42965;DHT22;28604;51.204;22.552;2023-08-06T00:10:36;21.70;91.00
42965;DHT22;28604;51.204;22.552;2023-08-06T00:13:02;21.60;91.00
42965;DHT22;28604;51.204;22.552;2023-08-06T00:15:28;21.60;91.10
42965;DHT22;28604;51.204;22.552;2023-08-06T00:17:54;21.50;91.10
42965;DHT22;28604;51.204;22.552;2023-08-06T00:20:20;21.50;91.10
42965;DHT22;28604;51.204;22.552;2023-08-06T00:22:46;21.50;91.10
42965;DHT22;28604;51.204;22.552;2023-08-06T00:25:12;21.40;91.00
42965;DHT22;28604;51.204;22.552;2023-08-06T00:27:38;21.50;91.10
42965;DHT22;28604;51.204;22.552;2023-08-06T00:30:04;21.50;91.10
42965;DHT22;28604;51.204;22.552;2023-08-06T00:32:34;21.40;91.30
42965;DHT22;28604;51.204;22.552;2023-08-06T00:35:00;21.40;91.40
42965;DHT22;28604;51.204;22.552;2023-08-06T00:37:26;21.40;91.40
42965;DHT22;28604;51.204;22.552;2023-08-06T00:39:51;21.40;91.70
42965;DHT22;28604;51.204;22.552;2023-08-06T00:42:17;21.40;91.40
42965;DHT22;28604;51.204;22.552;2023-08-06T00:44:46;21.40;91.30
42965;DHT22;28604;51.204;22.552;2023-08-06T00:47:13;21.30;91.30
42965;DHT22;28604;51.204;22.552;2023-08-06T00:49:39;21.30;91.20
42965;DHT22;28604;51.204;22.552;2023-08-06T00:52:07;21.30;91.30
42965;DHT22;28604;51.204;22.552;2023-08-06T00:54:36;21.40;91.20
42965;DHT22;28604;51.204;22.552;2023-08-06T00:57:04;21.30;91.20
42965;DHT22;28604;51.204;22.552;2023-08-06T00:59:31;21.30;91.20
42965;DHT22;28604;51.204;22.552;2023-08-06T01:01:57;21.30;91.30
42965;DHT22;28604;51.204;22.552;2023-08-06T01:04:23;21.30;91.30
42965;DHT22;28604;51.204;22.552;2023-08-06T01:07:12;21.30;91.30
42965;DHT22;28604;51.204;22.552;2023-08-06T01:09:54;21.30;91.50
42965;DHT22;28604;51.204;22.552;2023-08-06T01:12:34;21.30;91.30
42965;DHT22;28604;51.204;22.552;2023-08-06T01:15:21;21.20;91.30
42965;DHT22;28604;51.204;22.552;2023-08-06T01:17:48;21.30;91.30
42965;DHT22;28604;51.204;22.552;2023-08-06T01:20:14;21.30;91.30
42965;DHT22;28604;51.204;22.552;2023-08-06T01:22:40;21.20;91.20
42965;DHT22;28604;51.204;22.552;2023-08-06T01:25:07;21.20;91.30
42965;DHT22;28604;51.204;22.552;2023-08-06T01:27:44;21.20;91.40
42965;DHT22;28604;51.204;22.552;2023-08-06T01:30:15;21.20;91.40
42965;DHT22;28604;51.204;22.552;2023-08-06T01:32:44;21.10;91.40
42965;DHT22;28604;51.204;22.552;2023-08-06T01:35:13;21.20;91.80
42965;DHT22;28604;51.204;22.552;2023-08-06T01:37:41;21.20;91.50
42965;DHT22;28604;51.204;22.552;2023-08-06T01:40:10;21.20;91.50
42965;DHT22;28604;51.204;22.552;2023-08-06T01:42:38;21.10;91.50
42965;DHT22;28604;51.204;22.552;2023-08-06T01:45:08;21.10;91.50
42965;DHT22;28604;51.204;22.552;2023-08-06T01:47:35;21.10;91.70
42965;DHT22;28604;51.204;22.552;2023-08-06T01:50:01;21.10;91.40
42965;DHT22;28604;51.204;22.552;2023-08-06T01:52:27;21.10;91.40
42965;DHT22;28604;51.204;22.552;2023-08-06T01:54:53;21.10;91.40
42965;DHT22;28604;51.204;22.552;2023-08-06T01:57:19;21.00;91.30
42965;DHT22;28604;51.204;22.552;2023-08-06T01:59:45;21.00;91.30
42965;DHT22;28604;51.204;22.552;2023-08-06T02:02:12;21.00;91.40
42965;DHT22;28604;51.204;22.552;2023-08-06T02:04:38;21.00;91.40
42965;DHT22;28604;51.204;22.552;2023-08-06T02:07:05;21.00;91.40
42965;DHT22;28604;51.204;22.552;2023-08-06T02:09:31;21.00;91.30
42965;DHT22;28604;51.204;22.552;2023-08-06T02:11:57;20.90;91.20
42965;DHT22;28604;51.204;22.552;2023-08-06T02:14:23;20.90;91.30
42965;DHT22;28604;51.204;22.552;2023-08-06T02:16:49;20.90;91.30
42965;DHT22;28604;51.204;22.552;2023-08-06T02:19:15;20.90;91.30
42965;DHT22;28604;51.204;22.552;2023-08-06T02:21:41;20.90;91.40
42965;DHT22;28604;51.204;22.552;2023-08-06T02:24:07;20.80;91.40
42965;DHT22;28604;51.204;22.552;2023-08-06T02:26:33;20.80;91.20
42965;DHT22;28604;51.204;22.552;2023-08-06T02:28:59;20.80;91.30
42965;DHT22;28604;51.204;22.552;2023-08-06T02:31:25;20.70;91.10
42965;DHT22;28604;51.204;22.552;2023-08-06T02:33:51;20.70;91.20
42965;DHT22;28604;51.204;22.552;2023-08-06T02:36:19;20.70;91.00
42965;DHT22;28604;51.204;22.552;2023-08-06T02:38:45;20.60;91.00
42965;DHT22;28604;51.204;22.552;2023-08-06T02:41:11;20.60;90.90
42965;DHT22;28604;51.204;22.552;2023-08-06T02:43:37;20.60;90.90
42965;DHT22;28604;51.204;22.552;2023-08-06T02:46:03;20.60;90.80
42965;DHT22;28604;51.204;22.552;2023-08-06T02:48:29;20.60;90.70
42965;DHT22;28604;51.204;22.552;2023-08-06T02:50:59;20.60;90.80
42965;DHT22;28604;51.204;22.552;2023-08-06T02:53:25;20.60;90.70
42965;DHT22;28604;51.204;22.552;2023-08-06T02:55:52;20.60;90.80
42965;DHT22;28604;51.204;22.552;2023-08-06T02:58:24;20.60;90.70
42965;DHT22;28604;51.204;22.552;2023-08-06T03:01:08;20.60;90.80
42965;DHT22;28604;51.204;22.552;2023-08-06T03:03:42;20.50;90.80
42965;DHT22;28604;51.204;22.552;2023-08-06T03:06:09;20.50;90.80
42965;DHT22;28604;51.204;22.552;2023-08-06T03:08:42;20.40;91.10
42965;DHT22;28604;51.204;22.552;2023-08-06T03:11:08;20.30;91.10
42965;DHT22;28604;51.204;22.552;2023-08-06T03:13:35;20.30;91.10
42965;DHT22;28604;51.204;22.552;2023-08-06T03:16:02;20.30;91.20
42965;DHT22;28604;51.204;22.552;2023-08-06T03:18:29;20.30;91.10
42965;DHT22;28604;51.204;22.552;2023-08-06T03:20:58;20.30;91.10
42965;DHT22;28604;51.204;22.552;2023-08-06T03:23:28;20.30;90.90
42965;DHT22;28604;51.204;22.552;2023-08-06T03:25:54;20.30;91.00
42965;DHT22;28604;51.204;22.552;2023-08-06T03:28:22;20.20;91.20
42965;DHT22;28604;51.204;22.552;2023-08-06T03:31:01;20.30;91.20
42965;DHT22;28604;51.204;22.552;2023-08-06T03:33:32;20.20;91.20
42965;DHT22;28604;51.204;22.552;2023-08-06T03:35:59;20.20;91.20
42965;DHT22;28604;51.204;22.552;2023-08-06T03:38:25;20.20;91.30
42965;DHT22;28604;51.204;22.552;2023-08-06T03:40:54;20.20;91.30
42965;DHT22;28604;51.204;22.552;2023-08-06T03:43:20;20.30;91.60
42965;DHT22;28604;51.204;22.552;2023-08-06T03:45:47;20.30;91.20
42965;DHT22;28604;51.204;22.552;2023-08-06T03:48:13;20.40;91.30
42965;DHT22;28604;51.204;22.552;2023-08-06T03:50:40;20.20;91.20
42965;DHT22;28604;51.204;22.552;2023-08-06T03:53:11;20.30;91.20
42965;DHT22;28604;51.204;22.552;2023-08-06T03:55:38;20.30;91.30
42965;DHT22;28604;51.204;22.552;2023-08-06T03:58:03;20.30;91.30
42965;DHT22;28604;51.204;22.552;2023-08-06T04:00:30;20.40;91.20
42965;DHT22;28604;51.204;22.552;2023-08-06T04:02:56;20.40;91.30
42965;DHT22;28604;51.204;22.552;2023-08-06T04:05:22;20.50;91.30
42965;DHT22;28604;51.204;22.552;2023-08-06T04:07:48;20.40;91.40
42965;DHT22;28604;51.204;22.552;2023-08-06T04:10:14;20.50;91.60
42965;DHT22;28604;51.204;22.552;2023-08-06T04:12:40;20.60;91.40
42965;DHT22;28604;51.204;22.552;2023-08-06T04:15:06;20.60;91.60
42965;DHT22;28604;51.204;22.552;2023-08-06T04:17:32;20.60;91.60
42965;DHT22;28604;51.204;22.552;2023-08-06T04:19:59;20.60;91.70
42965;DHT22;28604;51.204;22.552;2023-08-06T04:22:25;20.60;91.60
42965;DHT22;28604;51.204;22.552;2023-08-06T04:24:51;20.70;91.60
42965;DHT22;28604;51.204;22.552;2023-08-06T04:27:19;20.70;91.20
42965;DHT22;28604;51.204;22.552;2023-08-06T04:29:47;20.80;91.30
42965;DHT22;28604;51.204;22.552;2023-08-06T04:32:12;20.90;91.20
42965;DHT22;28604;51.204;22.552;2023-08-06T04:34:44;20.90;91.10
42965;DHT22;28604;51.204;22.552;2023-08-06T04:37:09;21.00;90.70
42965;DHT22;28604;51.204;22.552;2023-08-06T04:39:36;20.90;91.00
42965;DHT22;28604;51.204;22.552;2023-08-06T04:42:03;21.00;90.80
42965;DHT22;28604;51.204;22.552;2023-08-06T04:44:29;21.10;90.30
42965;DHT22;28604;51.204;22.552;2023-08-06T04:46:55;21.20;90.60
42965;DHT22;28604;51.204;22.552;2023-08-06T04:49:22;21.20;90.40
42965;DHT22;28604;51.204;22.552;2023-08-06T04:51:48;21.20;90.30
42965;DHT22;28604;51.204;22.552;2023-08-06T04:54:14;21.20;90.10
42965;DHT22;28604;51.204;22.552;2023-08-06T04:56:40;21.30;89.70
42965;DHT22;28604;51.204;22.552;2023-08-06T04:59:06;21.40;89.10
42965;DHT22;28604;51.204;22.552;2023-08-06T05:01:32;21.40;89.40
42965;DHT22;28604;51.204;22.552;2023-08-06T05:03:58;21.50;88.90
42965;DHT22;28604;51.204;22.552;2023-08-06T05:06:23;21.50;89.20
42965;DHT22;28604;51.204;22.552;2023-08-06T05:08:50;21.50;89.00
42965;DHT22;28604;51.204;22.552;2023-08-06T05:11:15;21.60;88.40
42965;DHT22;28604;51.204;22.552;2023-08-06T05:13:42;21.60;88.60
42965;DHT22;28604;51.204;22.552;2023-08-06T05:16:07;21.60;88.90
42965;DHT22;28604;51.204;22.552;2023-08-06T05:18:33;21.70;88.00
42965;DHT22;28604;51.204;22.552;2023-08-06T05:21:00;21.70;88.40
42965;DHT22;28604;51.204;22.552;2023-08-06T05:23:26;21.80;87.40
42965;DHT22;28604;51.204;22.552;2023-08-06T05:25:52;21.90;87.60
42965;DHT22;28604;51.204;22.552;2023-08-06T05:28:18;22.00;88.00
42965;DHT22;28604;51.204;22.552;2023-08-06T05:30:44;21.90;87.80
42965;DHT22;28604;51.204;22.552;2023-08-06T05:33:10;21.90;87.00
42965;DHT22;28604;51.204;22.552;2023-08-06T05:35:35;22.00;87.20
42965;DHT22;28604;51.204;22.552;2023-08-06T05:38:02;22.20;86.40
42965;DHT22;28604;51.204;22.552;2023-08-06T05:40:27;22.30;86.30
42965;DHT22;28604;51.204;22.552;2023-08-06T05:42:54;22.30;86.50
42965;DHT22;28604;51.204;22.552;2023-08-06T05:45:20;22.40;86.00
42965;DHT22;28604;51.204;22.552;2023-08-06T05:47:48;22.50;85.30
42965;DHT22;28604;51.204;22.552;2023-08-06T05:50:14;22.60;84.90
42965;DHT22;28604;51.204;22.552;2023-08-06T05:52:40;22.70;84.70
42965;DHT22;28604;51.204;22.552;2023-08-06T05:55:06;22.80;84.00
42965;DHT22;28604;51.204;22.552;2023-08-06T05:57:32;22.80;83.90
42965;DHT22;28604;51.204;22.552;2023-08-06T05:59:58;22.90;82.80
42965;DHT22;28604;51.204;22.552;2023-08-06T06:02:24;22.90;84.30
42965;DHT22;28604;51.204;22.552;2023-08-06T06:04:50;23.00;84.10
42965;DHT22;28604;51.204;22.552;2023-08-06T06:07:16;23.10;84.40
42965;DHT22;28604;51.204;22.552;2023-08-06T06:09:42;23.20;84.60
42965;DHT22;28604;51.204;22.552;2023-08-06T06:12:08;23.40;82.70
42965;DHT22;28604;51.204;22.552;2023-08-06T06:14:34;23.70;82.30
42965;DHT22;28604;51.204;22.552;2023-08-06T06:17:00;24.00;81.10
42965;DHT22;28604;51.204;22.552;2023-08-06T06:19:26;24.30;81.30
42965;DHT22;28604;51.204;22.552;2023-08-06T06:21:53;24.60;79.90
42965;DHT22;28604;51.204;22.552;2023-08-06T06:24:19;25.00;79.80
42965;DHT22;28604;51.204;22.552;2023-08-06T06:26:45;25.40;78.40
42965;DHT22;28604;51.204;22.552;2023-08-06T06:29:10;25.60;77.00
42965;DHT22;28604;51.204;22.552;2023-08-06T06:31:36;26.00;76.50
42965;DHT22;28604;51.204;22.552;2023-08-06T06:39:40;26.50;74.60
42965;DHT22;28604;51.204;22.552;2023-08-06T06:42:06;26.80;73.50
42965;DHT22;28604;51.204;22.552;2023-08-06T06:44:37;26.80;73.40
42965;DHT22;28604;51.204;22.552;2023-08-06T06:47:03;27.10;73.00
42965;DHT22;28604;51.204;22.552;2023-08-06T06:49:29;27.30;71.50
42965;DHT22;28604;51.204;22.552;2023-08-06T06:51:55;27.40;71.30
42965;DHT22;28604;51.204;22.552;2023-08-06T06:54:21;27.50;71.30
42965;DHT22;28604;51.204;22.552;2023-08-06T06:56:50;27.70;70.80
42965;DHT22;28604;51.204;22.552;2023-08-06T06:59:16;27.90;70.10
42965;DHT22;28604;51.204;22.552;2023-08-06T07:01:42;27.90;69.70
42965;DHT22;28604;51.204;22.552;2023-08-06T07:04:08;28.10;70.00
42965;DHT22;28604;51.204;22.552;2023-08-06T07:06:34;28.40;69.40
42965;DHT22;28604;51.204;22.552;2023-08-06T07:09:00;28.40;68.90
42965;DHT22;28604;51.204;22.552;2023-08-06T07:11:26;28.60;69.40
42965;DHT22;28604;51.204;22.552;2023-08-06T07:13:56;28.90;68.50
42965;DHT22;28604;51.204;22.552;2023-08-06T07:16:24;29.20;67.50
42965;DHT22;28604;51.204;22.552;2023-08-06T07:18:51;29.30;68.10
42965;DHT22;28604;51.204;22.552;2023-08-06T07:21:18;29.40;67.00
42965;DHT22;28604;51.204;22.552;2023-08-06T07:23:45;29.40;66.90
42965;DHT22;28604;51.204;22.552;2023-08-06T07:26:11;29.40;67.60
42965;DHT22;28604;51.204;22.552;2023-08-06T07:28:37;29.40;66.70
42965;DHT22;28604;51.204;22.552;2023-08-06T07:31:03;29.50;66.20
42965;DHT22;28604;51.204;22.552;2023-08-06T07:33:29;29.90;66.70
42965;DHT22;28604;51.204;22.552;2023-08-06T07:35:55;30.20;66.10
42965;DHT22;28604;51.204;22.552;2023-08-06T07:38:21;30.50;65.60
42965;DHT22;28604;51.204;22.552;2023-08-06T07:40:47;30.50;64.90
42965;DHT22;28604;51.204;22.552;2023-08-06T07:43:13;30.80;65.00
42965;DHT22;28604;51.204;22.552;2023-08-06T07:45:39;31.20;65.00
42965;DHT22;28604;51.204;22.552;2023-08-06T07:48:05;31.20;62.90
42965;DHT22;28604;51.204;22.552;2023-08-06T07:50:31;31.10;62.90
42965;DHT22;28604;51.204;22.552;2023-08-06T07:52:57;31.00;63.90
42965;DHT22;28604;51.204;22.552;2023-08-06T07:55:23;31.30;63.30
42965;DHT22;28604;51.204;22.552;2023-08-06T07:57:49;31.70;63.10
42965;DHT22;28604;51.204;22.552;2023-08-06T08:00:15;31.90;63.00
42965;DHT22;28604;51.204;22.552;2023-08-06T08:02:41;32.20;61.60
42965;DHT22;28604;51.204;22.552;2023-08-06T08:05:08;32.10;60.20
42965;DHT22;28604;51.204;22.552;2023-08-06T08:07:34;31.80;61.50
42965;DHT22;28604;51.204;22.552;2023-08-06T08:10:00;31.70;63.00
42965;DHT22;28604;51.204;22.552;2023-08-06T08:12:26;31.90;61.60
42965;DHT22;28604;51.204;22.552;2023-08-06T08:14:52;31.70;61.60
42965;DHT22;28604;51.204;22.552;2023-08-06T08:17:17;31.70;61.00
42965;DHT22;28604;51.204;22.552;2023-08-06T08:19:44;32.00;61.40
42965;DHT22;28604;51.204;22.552;2023-08-06T08:22:09;32.60;61.10
42965;DHT22;28604;51.204;22.552;2023-08-06T08:24:35;33.30;60.50
42965;DHT22;28604;51.204;22.552;2023-08-06T08:27:01;33.20;58.90
42965;DHT22;28604;51.204;22.552;2023-08-06T08:29:27;32.80;58.30
42965;DHT22;28604;51.204;22.552;2023-08-06T08:31:53;32.40;59.00
42965;DHT22;28604;51.204;22.552;2023-08-06T08:34:19;32.60;59.60
42965;DHT22;28604;51.204;22.552;2023-08-06T08:36:45;32.70;60.00
42965;DHT22;28604;51.204;22.552;2023-08-06T08:39:15;33.40;58.90
42965;DHT22;28604;51.204;22.552;2023-08-06T08:41:42;33.70;57.70
42965;DHT22;28604;51.204;22.552;2023-08-06T08:44:09;33.40;57.90
42965;DHT22;28604;51.204;22.552;2023-08-06T08:46:38;33.40;56.60
42965;DHT22;28604;51.204;22.552;2023-08-06T08:49:04;33.00;57.90
42965;DHT22;28604;51.204;22.552;2023-08-06T08:51:30;32.90;57.40
42965;DHT22;28604;51.204;22.552;2023-08-06T08:53:57;33.20;57.60
42965;DHT22;28604;51.204;22.552;2023-08-06T08:56:23;33.40;57.90
42965;DHT22;28604;51.204;22.552;2023-08-06T08:58:50;33.70;56.90
42965;DHT22;28604;51.204;22.552;2023-08-06T09:01:17;33.50;57.50
42965;DHT22;28604;51.204;22.552;2023-08-06T09:03:43;33.20;57.40
42965;DHT22;28604;51.204;22.552;2023-08-06T09:06:11;33.10;58.10
42965;DHT22;28604;51.204;22.552;2023-08-06T09:08:43;33.60;57.30
42965;DHT22;28604;51.204;22.552;2023-08-06T09:11:12;33.90;57.20
42965;DHT22;28604;51.204;22.552;2023-08-06T09:13:39;34.00;57.60
42965;DHT22;28604;51.204;22.552;2023-08-06T09:16:05;34.30;58.00
42965;DHT22;28604;51.204;22.552;2023-08-06T09:18:31;34.00;57.50
42965;DHT22;28604;51.204;22.552;2023-08-06T09:20:57;34.00;55.90
42965;DHT22;28604;51.204;22.552;2023-08-06T09:23:28;34.10;56.70
42965;DHT22;28604;51.204;22.552;2023-08-06T09:25:56;34.20;56.80
42965;DHT22;28604;51.204;22.552;2023-08-06T09:28:23;34.10;55.90
42965;DHT22;28604;51.204;22.552;2023-08-06T09:30:50;34.10;56.70
42965;DHT22;28604;51.204;22.552;2023-08-06T09:33:19;34.30;56.10
42965;DHT22;28604;51.204;22.552;2023-08-06T09:35:46;34.20;55.70
42965;DHT22;28604;51.204;22.552;2023-08-06T09:38:12;34.20;56.90
42965;DHT22;28604;51.204;22.552;2023-08-06T09:40:40;34.30;56.10
42965;DHT22;28604;51.204;22.552;2023-08-06T09:43:07;34.00;56.50
42965;DHT22;28604;51.204;22.552;2023-08-06T09:45:35;34.00;56.10
42965;DHT22;28604;51.204;22.552;2023-08-06T09:48:05;33.90;56.60
42965;DHT22;28604;51.204;22.552;2023-08-06T09:50:34;33.50;56.80
42965;DHT22;28604;51.204;22.552;2023-08-06T09:53:06;33.60;57.30
42965;DHT22;28604;51.204;22.552;2023-08-06T09:55:33;33.30;57.20
42965;DHT22;28604;51.204;22.552;2023-08-06T09:58:00;33.30;58.30
42965;DHT22;28604;51.204;22.552;2023-08-06T10:00:26;33.50;58.10
42965;DHT22;28604;51.204;22.552;2023-08-06T10:02:55;33.80;58.70
42965;DHT22;28604;51.204;22.552;2023-08-06T10:05:25;33.90;56.90
42965;DHT22;28604;51.204;22.552;2023-08-06T10:07:52;34.00;57.30
42965;DHT22;28604;51.204;22.552;2023-08-06T10:10:19;33.80;56.30
42965;DHT22;28604;51.204;22.552;2023-08-06T10:12:53;33.60;57.20
42965;DHT22;28604;51.204;22.552;2023-08-06T10:15:25;33.40;57.30
42965;DHT22;28604;51.204;22.552;2023-08-06T10:17:56;33.40;56.80
42965;DHT22;28604;51.204;22.552;2023-08-06T10:20:22;33.60;56.40
42965;DHT22;28604;51.204;22.552;2023-08-06T10:23:05;33.90;56.40
42965;DHT22;28604;51.204;22.552;2023-08-06T10:25:40;34.00;55.00
42965;DHT22;28604;51.204;22.552;2023-08-06T10:28:12;33.70;54.60
42965;DHT22;28604;51.204;22.552;2023-08-06T10:30:47;33.30;55.30
42965;DHT22;28604;51.204;22.552;2023-08-06T10:33:14;33.30;56.60
42965;DHT22;28604;51.204;22.552;2023-08-06T10:35:46;33.60;55.90
42965;DHT22;28604;51.204;22.552;2023-08-06T10:38:16;33.50;55.30
42965;DHT22;28604;51.204;22.552;2023-08-06T10:43:31;33.50;56.50
42965;DHT22;28604;51.204;22.552;2023-08-06T10:45:59;33.60;55.80
42965;DHT22;28604;51.204;22.552;2023-08-06T10:48:34;33.70;56.10
42965;DHT22;28604;51.204;22.552;2023-08-06T10:51:02;33.60;55.70
42965;DHT22;28604;51.204;22.552;2023-08-06T10:53:29;33.60;56.50
42965;DHT22;28604;51.204;22.552;2023-08-06T10:55:55;33.60;56.80
42965;DHT22;28604;51.204;22.552;2023-08-06T10:58:21;33.70;56.50
42965;DHT22;28604;51.204;22.552;2023-08-06T11:00:47;33.70;55.50
42965;DHT22;28604;51.204;22.552;2023-08-06T11:03:14;33.50;55.90
42965;DHT22;28604;51.204;22.552;2023-08-06T11:05:40;33.30;55.80
42965;DHT22;28604;51.204;22.552;2023-08-06T11:08:06;33.20;56.60
42965;DHT22;28604;51.204;22.552;2023-08-06T11:10:34;33.30;57.90
42965;DHT22;28604;51.204;22.552;2023-08-06T11:13:01;33.10;55.60
42965;DHT22;28604;51.204;22.552;2023-08-06T11:15:29;33.10;56.00
42965;DHT22;28604;51.204;22.552;2023-08-06T11:17:55;33.10;56.10
42965;DHT22;28604;51.204;22.552;2023-08-06T11:20:21;33.30;56.90
42965;DHT22;28604;51.204;22.552;2023-08-06T11:22:48;33.30;56.90
42965;DHT22;28604;51.204;22.552;2023-08-06T11:25:14;33.30;56.20
42965;DHT22;28604;51.204;22.552;2023-08-06T11:27:40;33.10;57.00
42965;DHT22;28604;51.204;22.552;2023-08-06T11:30:06;32.90;57.30
42965;DHT22;28604;51.204;22.552;2023-08-06T11:32:32;32.80;57.50
42965;DHT22;28604;51.204;22.552;2023-08-06T11:35:10;32.90;57.10
42965;DHT22;28604;51.204;22.552;2023-08-06T11:37:38;32.80;58.40
42965;DHT22;28604;51.204;22.552;2023-08-06T11:40:08;32.90;58.00
42965;DHT22;28604;51.204;22.552;2023-08-06T11:42:36;32.70;57.50
42965;DHT22;28604;51.204;22.552;2023-08-06T11:45:03;32.70;58.40
42965;DHT22;28604;51.204;22.552;2023-08-06T11:47:30;32.60;58.20
42965;DHT22;28604;51.204;22.552;2023-08-06T11:49:56;32.30;58.30
42965;DHT22;28604;51.204;22.552;2023-08-06T11:52:23;32.20;59.20
42965;DHT22;28604;51.204;22.552;2023-08-06T11:55:06;32.00;60.30
42965;DHT22;28604;51.204;22.552;2023-08-06T11:57:34;32.10;60.30
42965;DHT22;28604;51.204;22.552;2023-08-06T12:00:05;32.00;59.40
42965;DHT22;28604;51.204;22.552;2023-08-06T12:02:44;31.70;60.10
42965;DHT22;28604;51.204;22.552;2023-08-06T12:05:12;31.60;59.80
42965;DHT22;28604;51.204;22.552;2023-08-06T12:07:39;31.30;60.00
42965;DHT22;28604;51.204;22.552;2023-08-06T12:10:06;31.20;60.80
42965;DHT22;28604;51.204;22.552;2023-08-06T12:12:32;31.10;61.20
42965;DHT22;28604;51.204;22.552;2023-08-06T12:14:58;31.00;61.20
42965;DHT22;28604;51.204;22.552;2023-08-06T12:17:24;31.00;61.00
42965;DHT22;28604;51.204;22.552;2023-08-06T12:19:50;30.80;61.20
42965;DHT22;28604;51.204;22.552;2023-08-06T12:22:17;30.80;61.30
42965;DHT22;28604;51.204;22.552;2023-08-06T12:24:44;30.80;61.40
42965;DHT22;28604;51.204;22.552;2023-08-06T12:27:10;30.70;61.20
42965;DHT22;28604;51.204;22.552;2023-08-06T12:29:40;30.70;61.90
42965;DHT22;28604;51.204;22.552;2023-08-06T12:32:06;30.60;62.30
42965;DHT22;28604;51.204;22.552;2023-08-06T12:34:32;30.40;62.70
42965;DHT22;28604;51.204;22.552;2023-08-06T12:36:58;30.40;63.70
42965;DHT22;28604;51.204;22.552;2023-08-06T12:39:24;30.30;64.90
42965;DHT22;28604;51.204;22.552;2023-08-06T12:41:50;30.20;65.70
42965;DHT22;28604;51.204;22.552;2023-08-06T12:44:16;30.00;66.30
42965;DHT22;28604;51.204;22.552;2023-08-06T12:46:42;29.90;67.10
42965;DHT22;28604;51.204;22.552;2023-08-06T12:49:07;29.80;68.10
42965;DHT22;28604;51.204;22.552;2023-08-06T12:51:34;29.60;68.60
42965;DHT22;28604;51.204;22.552;2023-08-06T12:54:00;29.50;72.10
42965;DHT22;28604;51.204;22.552;2023-08-06T12:56:26;29.40;72.40
42965;DHT22;28604;51.204;22.552;2023-08-06T12:58:52;29.30;74.20
42965;DHT22;28604;51.204;22.552;2023-08-06T13:01:18;29.10;73.90
42965;DHT22;28604;51.204;22.552;2023-08-06T13:03:43;29.20;72.10
42965;DHT22;28604;51.204;22.552;2023-08-06T13:06:09;29.20;71.20
42965;DHT22;28604;51.204;22.552;2023-08-06T13:08:36;29.10;71.20
42965;DHT22;28604;51.204;22.552;2023-08-06T13:11:02;28.90;69.60
42965;DHT22;28604;51.204;22.552;2023-08-06T13:13:28;28.90;70.30
42965;DHT22;28604;51.204;22.552;2023-08-06T13:15:54;28.80;68.90
42965;DHT22;28604;51.204;22.552;2023-08-06T13:18:20;28.70;69.30
42965;DHT22;28604;51.204;22.552;2023-08-06T13:20:46;28.70;69.30
42965;DHT22;28604;51.204;22.552;2023-08-06T13:23:14;28.50;69.90
42965;DHT22;28604;51.204;22.552;2023-08-06T13:25:42;28.40;71.00
42965;DHT22;28604;51.204;22.552;2023-08-06T13:28:08;28.40;71.10
42965;DHT22;28604;51.204;22.552;2023-08-06T13:30:35;28.40;71.10
42965;DHT22;28604;51.204;22.552;2023-08-06T13:33:07;28.30;71.20
42965;DHT22;28604;51.204;22.552;2023-08-06T13:35:34;28.40;71.50
42965;DHT22;28604;51.204;22.552;2023-08-06T13:38:00;28.40;71.80
42965;DHT22;28604;51.204;22.552;2023-08-06T13:40:29;28.40;72.00
42965;DHT22;28604;51.204;22.552;2023-08-06T13:42:55;28.50;71.90
42965;DHT22;28604;51.204;22.552;2023-08-06T13:45:21;28.60;71.30
42965;DHT22;28604;51.204;22.552;2023-08-06T13:47:47;28.60;71.50
42965;DHT22;28604;51.204;22.552;2023-08-06T13:50:14;28.80;71.20
42965;DHT22;28604;51.204;22.552;2023-08-06T13:52:40;28.90;71.10
42965;DHT22;28604;51.204;22.552;2023-08-06T13:55:06;29.20;70.70
42965;DHT22;28604;51.204;22.552;2023-08-06T13:57:34;29.30;70.40
42965;DHT22;28604;51.204;22.552;2023-08-06T14:00:00;29.40;70.30
42965;DHT22;28604;51.204;22.552;2023-08-06T14:02:26;29.60;69.90
42965;DHT22;28604;51.204;22.552;2023-08-06T14:04:53;29.50;68.60
42965;DHT22;28604;51.204;22.552;2023-08-06T14:07:19;29.50;68.50
42965;DHT22;28604;51.204;22.552;2023-08-06T14:09:45;29.50;68.00
42965;DHT22;28604;51.204;22.552;2023-08-06T14:12:13;29.50;68.10
42965;DHT22;28604;51.204;22.552;2023-08-06T14:14:40;29.50;68.40
42965;DHT22;28604;51.204;22.552;2023-08-06T14:17:06;29.50;68.60
42965;DHT22;28604;51.204;22.552;2023-08-06T14:19:32;29.50;68.50
42965;DHT22;28604;51.204;22.552;2023-08-06T14:21:58;29.50;68.70
42965;DHT22;28604;51.204;22.552;2023-08-06T14:24:24;29.50;68.40
42965;DHT22;28604;51.204;22.552;2023-08-06T14:26:49;29.60;68.40
42965;DHT22;28604;51.204;22.552;2023-08-06T14:29:16;29.60;68.60
42965;DHT22;28604;51.204;22.552;2023-08-06T14:31:42;29.60;68.60
42965;DHT22;28604;51.204;22.552;2023-08-06T14:34:08;29.60;68.60
42965;DHT22;28604;51.204;22.552;2023-08-06T14:36:34;29.50;68.90
42965;DHT22;28604;51.204;22.552;2023-08-06T14:39:00;29.50;69.30
42965;DHT22;28604;51.204;22.552;2023-08-06T14:41:26;29.40;69.50
42965;DHT22;28604;51.204;22.552;2023-08-06T14:43:52;29.40;69.60
42965;DHT22;28604;51.204;22.552;2023-08-06T14:46:20;29.30;69.70
42965;DHT22;28604;51.204;22.552;2023-08-06T14:48:46;29.20;69.90
42965;DHT22;28604;51.204;22.552;2023-08-06T14:51:11;29.20;70.30
42965;DHT22;28604;51.204;22.552;2023-08-06T14:53:38;29.10;70.50
42965;DHT22;28604;51.204;22.552;2023-08-06T14:56:04;29.10;70.70
42965;DHT22;28604;51.204;22.552;2023-08-06T14:58:30;29.00;70.80
42965;DHT22;28604;51.204;22.552;2023-08-06T15:00:56;28.90;70.90
42965;DHT22;28604;51.204;22.552;2023-08-06T15:03:22;28.90;71.50
42965;DHT22;28604;51.204;22.552;2023-08-06T15:05:49;28.90;74.60
42965;DHT22;28604;51.204;22.552;2023-08-06T15:08:15;28.90;76.20
42965;DHT22;28604;51.204;22.552;2023-08-06T15:10:41;28.80;74.20
42965;DHT22;28604;51.204;22.552;2023-08-06T15:13:07;28.70;73.80
42965;DHT22;28604;51.204;22.552;2023-08-06T15:15:33;28.60;73.00
42965;DHT22;28604;51.204;22.552;2023-08-06T15:17:59;28.50;72.90
42965;DHT22;28604;51.204;22.552;2023-08-06T15:20:25;28.60;72.70
42965;DHT22;28604;51.204;22.552;2023-08-06T15:22:51;28.60;72.80